sensor_id;sensor_type;location;lat;lon;timestamp;P1;durP1;ratioP1;P2;durP2;ratioP2
13311;SDS011;34033;48.672;9.376;2022-10-10T00:01:12;5.53;;;3.53;;
13311;SDS011;34033;48.672;9.376;2022-10-10T00:03:37;4.07;;;3.43;;
13311;SDS011;34033;48.672;9.376;2022-10-10T00:06:03;3.83;;;3.20;;
13311;SDS011;34033;48.672;9.376;2022-10-10T00:08:29;4.47;;;3.40;;
13311;SDS011;34033;48.672;9.376;2022-10-10T00:10:54;6.90;;;3.53;;
13311;SDS011;34033;48.672;9.376;2022-10-10T00:13:20;4.00;;;3.10;;
13311;SDS011;34033;48.672;9.376;2022-10-10T00:15:45;3.80;;;3.00;;
13311;SDS011;34033;48.672;9.376;2022-10-10T00:18:11;10.50;;;3.03;;
13311;SDS011;34033;48.672;9.376;2022-10-10T00:20:36;3.20;;;2.90;;
13311;SDS011;34033;48.672;9.376;2022-10-10T00:23:01;3.60;;;3.07;;
13311;SDS011;34033;48.672;9.376;2022-10-10T00:25:27;3.30;;;2.97;;
13311;SDS011;34033;48.672;9.376;2022-10-10T00:27:52;3.30;;;3.00;;
13311;SDS011;34033;48.672;9.376;2022-10-10T00:30:18;5.40;;;3.20;;
13311;SDS011;34033;48.672;9.376;2022-10-10T00:32:43;3.30;;;3.00;;
13311;SDS011;34033;48.672;9.376;2022-10-10T00:35:09;3.20;;;2.90;;
13311;SDS011;34033;48.672;9.376;2022-10-10T00:37:34;3.13;;;2.70;;
13311;SDS011;34033;48.672;9.376;2022-10-10T00:40:00;3.63;;;3.07;;
13311;SDS011;34033;48.672;9.376;2022-10-10T00:42:25;4.17;;;3.17;;
13311;SDS011;34033;48.672;9.376;2022-10-10T00:47:47;4.37;;;3.10;;
13311;SDS011;34033;48.672;9.376;2022-10-10T00:50:15;3.40;;;3.10;;
13311;SDS011;34033;48.672;9.376;2022-10-10T00:52:43;4.33;;;3.10;;
13311;SDS011;34033;48.672;9.376;2022-10-10T00:55:09;3.23;;;2.60;;
13311;SDS011;34033;48.672;9.376;2022-10-10T00:57:35;3.97;;;3.00;;
13311;SDS011;34033;48.672;9.376;2022-10-10T01:00:00;3.13;;;2.83;;
13311;SDS011;34033;48.672;9.376;2022-10-10T01:02:27;3.50;;;3.20;;
13311;SDS011;34033;48.672;9.376;2022-10-10T01:04:53;4.17;;;2.77;;
13311;SDS011;34033;48.672;9.376;2022-10-10T01:07:23;3.90;;;3.10;;
13311;SDS011;34033;48.672;9.376;2022-10-10T01:09:51;4.30;;;3.27;;
13311;SDS011;34033;48.672;9.376;2022-10-10T01:15:22;3.07;;;2.80;;
13311;SDS011;34033;48.672;9.376;2022-10-10T01:29:41;3.17;;;2.80;;
13311;SDS011;34033;48.672;9.376;2022-10-10T01:32:09;3.37;;;3.07;;
13311;SDS011;34033;48.672;9.376;2022-10-10T01:34:46;3.47;;;2.63;;
13311;SDS011;34033;48.672;9.376;2022-10-10T01:37:19;3.70;;;3.03;;
13311;SDS011;34033;48.672;9.376;2022-10-10T01:43:02;3.00;;;2.80;;
13311;SDS011;34033;48.672;9.376;2022-10-10T01:45:31;3.30;;;3.00;;
13311;SDS011;34033;48.672;9.376;2022-10-10T01:47:58;3.10;;;2.80;;
13311;SDS011;34033;48.672;9.376;2022-10-10T01:50:26;3.57;;;2.77;;
13311;SDS011;34033;48.672;9.376;2022-10-10T02:00:38;3.07;;;2.77;;
13311;SDS011;34033;48.672;9.376;2022-10-10T02:03:17;3.60;;;2.80;;
13311;SDS011;34033;48.672;9.376;2022-10-10T02:05:51;3.53;;;2.80;;
13311;SDS011;34033;48.672;9.376;2022-10-10T02:08:29;3.27;;;2.97;;
13311;SDS011;34033;48.672;9.376;2022-10-10T02:10:59;6.60;;;2.93;;
13311;SDS011;34033;48.672;9.376;2022-10-10T02:13:29;3.13;;;2.77;;
13311;SDS011;34033;48.672;9.376;2022-10-10T02:15:59;5.50;;;2.90;;
13311;SDS011;34033;48.672;9.376;2022-10-10T02:18:28;3.00;;;2.70;;
13311;SDS011;34033;48.672;9.376;2022-10-10T02:20:57;2.90;;;2.60;;
13311;SDS011;34033;48.672;9.376;2022-10-10T02:23:24;3.97;;;2.87;;
13311;SDS011;34033;48.672;9.376;2022-10-10T02:25:50;2.87;;;2.63;;
13311;SDS011;34033;48.672;9.376;2022-10-10T02:31:00;3.37;;;2.70;;
13311;SDS011;34033;48.672;9.376;2022-10-10T02:34:13;4.40;;;2.60;;
13311;SDS011;34033;48.672;9.376;2022-10-10T02:36:25;2.93;;;2.73;;
13311;SDS011;34033;48.672;9.376;2022-10-10T02:38:52;3.27;;;2.90;;
13311;SDS011;34033;48.672;9.376;2022-10-10T02:41:19;3.17;;;2.67;;
13311;SDS011;34033;48.672;9.376;2022-10-10T02:43:46;3.63;;;2.83;;
13311;SDS011;34033;48.672;9.376;2022-10-10T02:46:14;2.73;;;2.53;;
13311;SDS011;34033;48.672;9.376;2022-10-10T02:48:39;6.87;;;2.97;;
13311;SDS011;34033;48.672;9.376;2022-10-10T02:51:05;2.90;;;2.70;;
13311;SDS011;34033;48.672;9.376;2022-10-10T02:53:32;3.27;;;2.57;;
13311;SDS011;34033;48.672;9.376;2022-10-10T02:55:59;2.83;;;2.60;;
13311;SDS011;34033;48.672;9.376;2022-10-10T02:58:25;3.20;;;2.90;;
13311;SDS011;34033;48.672;9.376;2022-10-10T03:00:50;4.67;;;2.70;;
13311;SDS011;34033;48.672;9.376;2022-10-10T03:03:16;3.03;;;2.80;;
13311;SDS011;34033;48.672;9.376;2022-10-10T03:05:41;3.30;;;3.00;;
13311;SDS011;34033;48.672;9.376;2022-10-10T03:08:06;2.70;;;2.50;;
13311;SDS011;34033;48.672;9.376;2022-10-10T03:10:32;3.30;;;3.00;;
13311;SDS011;34033;48.672;9.376;2022-10-10T03:12:57;3.00;;;2.70;;
13311;SDS011;34033;48.672;9.376;2022-10-10T03:15:22;4.83;;;2.90;;
13311;SDS011;34033;48.672;9.376;2022-10-10T03:17:48;3.40;;;2.70;;
13311;SDS011;34033;48.672;9.376;2022-10-10T03:20:13;2.97;;;2.70;;
13311;SDS011;34033;48.672;9.376;2022-10-10T03:22:38;3.10;;;2.90;;
13311;SDS011;34033;48.672;9.376;2022-10-10T03:25:04;5.03;;;2.73;;
13311;SDS011;34033;48.672;9.376;2022-10-10T03:27:29;4.40;;;3.00;;
13311;SDS011;34033;48.672;9.376;2022-10-10T03:29:55;5.17;;;3.00;;
13311;SDS011;34033;48.672;9.376;2022-10-10T03:32:20;3.53;;;3.00;;
13311;SDS011;34033;48.672;9.376;2022-10-10T03:34:46;4.87;;;2.97;;
13311;SDS011;34033;48.672;9.376;2022-10-10T03:37:11;3.00;;;2.70;;
13311;SDS011;34033;48.672;9.376;2022-10-10T03:39:36;6.33;;;3.07;;
13311;SDS011;34033;48.672;9.376;2022-10-10T03:42:02;3.10;;;2.90;;
13311;SDS011;34033;48.672;9.376;2022-10-10T03:44:27;3.90;;;3.13;;
13311;SDS011;34033;48.672;9.376;2022-10-10T03:46:52;2.97;;;2.77;;
13311;SDS011;34033;48.672;9.376;2022-10-10T03:49:18;5.67;;;2.93;;
13311;SDS011;34033;48.672;9.376;2022-10-10T03:51:43;3.23;;;2.93;;
13311;SDS011;34033;48.672;9.376;2022-10-10T03:54:08;4.27;;;2.93;;
13311;SDS011;34033;48.672;9.376;2022-10-10T03:56:34;2.87;;;2.67;;
13311;SDS011;34033;48.672;9.376;2022-10-10T03:58:59;3.10;;;2.80;;
13311;SDS011;34033;48.672;9.376;2022-10-10T04:01:27;2.73;;;2.53;;
13311;SDS011;34033;48.672;9.376;2022-10-10T04:03:53;4.57;;;3.30;;
13311;SDS011;34033;48.672;9.376;2022-10-10T04:06:19;5.00;;;4.07;;
13311;SDS011;34033;48.672;9.376;2022-10-10T04:08:44;5.57;;;3.77;;
13311;SDS011;34033;48.672;9.376;2022-10-10T04:11:10;5.53;;;3.27;;
13311;SDS011;34033;48.672;9.376;2022-10-10T04:13:35;3.70;;;3.40;;
13311;SDS011;34033;48.672;9.376;2022-10-10T04:16:00;3.57;;;3.10;;
13311;SDS011;34033;48.672;9.376;2022-10-10T04:18:26;3.90;;;3.37;;
13311;SDS011;34033;48.672;9.376;2022-10-10T04:20:51;3.13;;;2.83;;
13311;SDS011;34033;48.672;9.376;2022-10-10T04:23:17;4.80;;;3.30;;
13311;SDS011;34033;48.672;9.376;2022-10-10T04:25:43;5.43;;;4.27;;
13311;SDS011;34033;48.672;9.376;2022-10-10T04:28:10;4.20;;;3.80;;
13311;SDS011;34033;48.672;9.376;2022-10-10T04:30:36;4.13;;;3.23;;
13311;SDS011;34033;48.672;9.376;2022-10-10T04:33:01;3.67;;;3.33;;
13311;SDS011;34033;48.672;9.376;2022-10-10T04:35:27;4.10;;;3.37;;
13311;SDS011;34033;48.672;9.376;2022-10-10T04:37:52;4.97;;;3.80;;
13311;SDS011;34033;48.672;9.376;2022-10-10T04:40:18;4.73;;;3.60;;
13311;SDS011;34033;48.672;9.376;2022-10-10T04:42:43;6.40;;;5.00;;
13311;SDS011;34033;48.672;9.376;2022-10-10T04:45:08;5.83;;;4.30;;
13311;SDS011;34033;48.672;9.376;2022-10-10T04:47:34;4.50;;;3.60;;
13311;SDS011;34033;48.672;9.376;2022-10-10T04:50:00;4.00;;;3.10;;
13311;SDS011;34033;48.672;9.376;2022-10-10T04:52:25;3.67;;;3.23;;
13311;SDS011;34033;48.672;9.376;2022-10-10T04:54:50;5.93;;;3.30;;
13311;SDS011;34033;48.672;9.376;2022-10-10T04:57:16;3.30;;;3.00;;
13311;SDS011;34033;48.672;9.376;2022-10-10T04:59:41;3.60;;;3.30;;
13311;SDS011;34033;48.672;9.376;2022-10-10T05:02:06;6.50;;;3.63;;
13311;SDS011;34033;48.672;9.376;2022-10-10T05:04:32;3.53;;;3.23;;
13311;SDS011;34033;48.672;9.376;2022-10-10T05:06:57;4.03;;;3.30;;
13311;SDS011;34033;48.672;9.376;2022-10-10T05:09:23;4.10;;;3.27;;
13311;SDS011;34033;48.672;9.376;2022-10-10T05:11:48;3.47;;;3.17;;
13311;SDS011;34033;48.672;9.376;2022-10-10T05:14:13;3.93;;;3.00;;
13311;SDS011;34033;48.672;9.376;2022-10-10T05:16:38;4.50;;;3.20;;
13311;SDS011;34033;48.672;9.376;2022-10-10T05:19:04;3.20;;;2.90;;
13311;SDS011;34033;48.672;9.376;2022-10-10T05:21:29;3.60;;;3.30;;
13311;SDS011;34033;48.672;9.376;2022-10-10T05:23:55;3.20;;;2.90;;
13311;SDS011;34033;48.672;9.376;2022-10-10T05:26:20;4.43;;;2.97;;
13311;SDS011;34033;48.672;9.376;2022-10-10T05:28:46;3.00;;;2.80;;
13311;SDS011;34033;48.672;9.376;2022-10-10T05:31:11;3.83;;;3.20;;
13311;SDS011;34033;48.672;9.376;2022-10-10T05:33:37;3.23;;;2.93;;
13311;SDS011;34033;48.672;9.376;2022-10-10T05:36:04;4.23;;;3.30;;
13311;SDS011;34033;48.672;9.376;2022-10-10T05:38:31;4.33;;;3.90;;
13311;SDS011;34033;48.672;9.376;2022-10-10T05:40:56;4.43;;;3.83;;
13311;SDS011;34033;48.672;9.376;2022-10-10T05:43:22;8.40;;;4.57;;
13311;SDS011;34033;48.672;9.376;2022-10-10T05:45:47;4.37;;;3.67;;
13311;SDS011;34033;48.672;9.376;2022-10-10T05:48:12;3.50;;;3.23;;
13311;SDS011;34033;48.672;9.376;2022-10-10T05:50:38;5.10;;;3.80;;
13311;SDS011;34033;48.672;9.376;2022-10-10T05:53:05;7.63;;;3.23;;
13311;SDS011;34033;48.672;9.376;2022-10-10T05:55:31;4.63;;;3.37;;
13311;SDS011;34033;48.672;9.376;2022-10-10T05:57:56;5.60;;;3.73;;
13311;SDS011;34033;48.672;9.376;2022-10-10T06:00:22;4.67;;;3.20;;
13311;SDS011;34033;48.672;9.376;2022-10-10T06:02:47;3.47;;;3.17;;
13311;SDS011;34033;48.672;9.376;2022-10-10T06:05:13;3.70;;;3.40;;
13311;SDS011;34033;48.672;9.376;2022-10-10T06:07:38;5.03;;;3.43;;
13311;SDS011;34033;48.672;9.376;2022-10-10T06:10:04;4.27;;;3.40;;
13311;SDS011;34033;48.672;9.376;2022-10-10T06:12:29;4.97;;;4.47;;
13311;SDS011;34033;48.672;9.376;2022-10-10T06:14:55;6.73;;;5.00;;
13311;SDS011;34033;48.672;9.376;2022-10-10T06:17:20;6.83;;;4.27;;
13311;SDS011;34033;48.672;9.376;2022-10-10T06:19:46;5.00;;;4.00;;
13311;SDS011;34033;48.672;9.376;2022-10-10T06:22:11;8.50;;;4.80;;
13311;SDS011;34033;48.672;9.376;2022-10-10T06:24:36;4.87;;;4.10;;
13311;SDS011;34033;48.672;9.376;2022-10-10T06:27:02;5.47;;;3.33;;
13311;SDS011;34033;48.672;9.376;2022-10-10T06:29:27;7.17;;;3.80;;
13311;SDS011;34033;48.672;9.376;2022-10-10T06:31:52;5.20;;;3.83;;
13311;SDS011;34033;48.672;9.376;2022-10-10T06:34:18;4.13;;;2.60;;
13311;SDS011;34033;48.672;9.376;2022-10-10T06:36:43;6.13;;;3.60;;
13311;SDS011;34033;48.672;9.376;2022-10-10T06:39:08;6.47;;;3.60;;
13311;SDS011;34033;48.672;9.376;2022-10-10T06:41:34;5.83;;;3.43;;
13311;SDS011;34033;48.672;9.376;2022-10-10T06:43:59;7.70;;;3.83;;
13311;SDS011;34033;48.672;9.376;2022-10-10T06:46:24;4.87;;;3.57;;
13311;SDS011;34033;48.672;9.376;2022-10-10T06:48:50;5.60;;;3.90;;
13311;SDS011;34033;48.672;9.376;2022-10-10T06:51:16;5.17;;;3.77;;
13311;SDS011;34033;48.672;9.376;2022-10-10T06:53:42;4.57;;;3.80;;
13311;SDS011;34033;48.672;9.376;2022-10-10T06:56:09;6.73;;;4.13;;
13311;SDS011;34033;48.672;9.376;2022-10-10T06:58:41;5.07;;;3.70;;
13311;SDS011;34033;48.672;9.376;2022-10-10T07:01:08;4.80;;;3.60;;
13311;SDS011;34033;48.672;9.376;2022-10-10T07:03:33;3.97;;;3.57;;
13311;SDS011;34033;48.672;9.376;2022-10-10T07:05:59;6.20;;;3.50;;
13311;SDS011;34033;48.672;9.376;2022-10-10T07:08:27;5.67;;;3.90;;
13311;SDS011;34033;48.672;9.376;2022-10-10T07:10:53;4.27;;;3.70;;
13311;SDS011;34033;48.672;9.376;2022-10-10T07:13:19;5.47;;;3.80;;
13311;SDS011;34033;48.672;9.376;2022-10-10T07:15:45;5.03;;;3.60;;
13311;SDS011;34033;48.672;9.376;2022-10-10T07:18:11;4.20;;;3.40;;
13311;SDS011;34033;48.672;9.376;2022-10-10T07:20:36;3.67;;;3.20;;
13311;SDS011;34033;48.672;9.376;2022-10-10T07:23:03;4.37;;;3.27;;
13311;SDS011;34033;48.672;9.376;2022-10-10T07:25:28;4.07;;;3.43;;
13311;SDS011;34033;48.672;9.376;2022-10-10T07:27:54;4.27;;;3.43;;
13311;SDS011;34033;48.672;9.376;2022-10-10T07:30:20;4.27;;;3.63;;
13311;SDS011;34033;48.672;9.376;2022-10-10T07:32:47;4.03;;;3.27;;
13311;SDS011;34033;48.672;9.376;2022-10-10T07:35:12;5.63;;;3.60;;
13311;SDS011;34033;48.672;9.376;2022-10-10T07:37:38;5.17;;;3.60;;
13311;SDS011;34033;48.672;9.376;2022-10-10T07:40:03;6.17;;;4.00;;
13311;SDS011;34033;48.672;9.376;2022-10-10T07:42:30;5.33;;;3.57;;
13311;SDS011;34033;48.672;9.376;2022-10-10T07:44:55;5.90;;;3.87;;
13311;SDS011;34033;48.672;9.376;2022-10-10T07:47:21;5.10;;;3.70;;
13311;SDS011;34033;48.672;9.376;2022-10-10T07:49:46;5.43;;;4.50;;
13311;SDS011;34033;48.672;9.376;2022-10-10T07:52:12;4.07;;;3.57;;
13311;SDS011;34033;48.672;9.376;2022-10-10T07:54:37;5.70;;;4.07;;
13311;SDS011;34033;48.672;9.376;2022-10-10T07:57:02;5.03;;;3.47;;
13311;SDS011;34033;48.672;9.376;2022-10-10T07:59:28;4.03;;;3.53;;
13311;SDS011;34033;48.672;9.376;2022-10-10T08:01:53;5.77;;;3.83;;
13311;SDS011;34033;48.672;9.376;2022-10-10T08:04:19;5.10;;;3.90;;
13311;SDS011;34033;48.672;9.376;2022-10-10T08:06:44;5.53;;;4.30;;
13311;SDS011;34033;48.672;9.376;2022-10-10T08:09:10;5.60;;;3.93;;
13311;SDS011;34033;48.672;9.376;2022-10-10T08:11:35;4.70;;;3.80;;
13311;SDS011;34033;48.672;9.376;2022-10-10T08:14:00;4.50;;;3.80;;
13311;SDS011;34033;48.672;9.376;2022-10-10T08:16:26;4.73;;;4.17;;
13311;SDS011;34033;48.672;9.376;2022-10-10T08:18:52;5.17;;;3.63;;
13311;SDS011;34033;48.672;9.376;2022-10-10T08:21:17;9.73;;;4.27;;
13311;SDS011;34033;48.672;9.376;2022-10-10T08:23:43;6.70;;;3.53;;
13311;SDS011;34033;48.672;9.376;2022-10-10T08:26:09;7.43;;;4.20;;
13311;SDS011;34033;48.672;9.376;2022-10-10T08:28:37;4.37;;;3.67;;
13311;SDS011;34033;48.672;9.376;2022-10-10T08:31:13;5.37;;;3.77;;
13311;SDS011;34033;48.672;9.376;2022-10-10T08:33:40;3.97;;;3.40;;
13311;SDS011;34033;48.672;9.376;2022-10-10T08:36:08;4.97;;;3.73;;
13311;SDS011;34033;48.672;9.376;2022-10-10T08:38:36;3.90;;;3.53;;
13311;SDS011;34033;48.672;9.376;2022-10-10T08:44:06;5.00;;;3.63;;
13311;SDS011;34033;48.672;9.376;2022-10-10T08:46:49;4.40;;;3.77;;
13311;SDS011;34033;48.672;9.376;2022-10-10T08:51:57;3.83;;;3.37;;
13311;SDS011;34033;48.672;9.376;2022-10-10T08:54:27;6.23;;;3.60;;
13311;SDS011;34033;48.672;9.376;2022-10-10T08:56:56;3.70;;;3.40;;
13311;SDS011;34033;48.672;9.376;2022-10-10T08:59:25;6.53;;;3.23;;
13311;SDS011;34033;48.672;9.376;2022-10-10T09:01:57;4.50;;;3.50;;
13311;SDS011;34033;48.672;9.376;2022-10-10T09:04:41;4.37;;;3.37;;
13311;SDS011;34033;48.672;9.376;2022-10-10T09:07:16;3.53;;;3.13;;
13311;SDS011;34033;48.672;9.376;2022-10-10T09:12:28;6.33;;;3.97;;
13311;SDS011;34033;48.672;9.376;2022-10-10T09:15:27;3.53;;;3.23;;
13311;SDS011;34033;48.672;9.376;2022-10-10T09:20:44;2.93;;;2.70;;
13311;SDS011;34033;48.672;9.376;2022-10-10T09:23:31;3.97;;;3.27;;
13311;SDS011;34033;48.672;9.376;2022-10-10T09:26:06;3.53;;;3.23;;
13311;SDS011;34033;48.672;9.376;2022-10-10T09:34:14;3.70;;;3.40;;
13311;SDS011;34033;48.672;9.376;2022-10-10T09:36:43;4.83;;;3.50;;
13311;SDS011;34033;48.672;9.376;2022-10-10T09:42:00;4.00;;;3.07;;
13311;SDS011;34033;48.672;9.376;2022-10-10T09:44:27;4.17;;;3.20;;
13311;SDS011;34033;48.672;9.376;2022-10-10T09:46:53;5.10;;;3.27;;
13311;SDS011;34033;48.672;9.376;2022-10-10T09:49:19;4.27;;;2.90;;
13311;SDS011;34033;48.672;9.376;2022-10-10T09:51:46;3.30;;;3.03;;
13311;SDS011;34033;48.672;9.376;2022-10-10T09:54:13;3.67;;;2.87;;
13311;SDS011;34033;48.672;9.376;2022-10-10T09:56:44;3.97;;;3.50;;
13311;SDS011;34033;48.672;9.376;2022-10-10T09:59:34;3.33;;;3.03;;
13311;SDS011;34033;48.672;9.376;2022-10-10T10:02:25;5.00;;;3.13;;
13311;SDS011;34033;48.672;9.376;2022-10-10T10:04:52;3.20;;;2.90;;
13311;SDS011;34033;48.672;9.376;2022-10-10T10:07:28;3.43;;;2.93;;
13311;SDS011;34033;48.672;9.376;2022-10-10T10:09:56;3.23;;;2.90;;
13311;SDS011;34033;48.672;9.376;2022-10-10T10:12:26;4.77;;;2.93;;
13311;SDS011;34033;48.672;9.376;2022-10-10T10:14:58;5.10;;;4.30;;
13311;SDS011;34033;48.672;9.376;2022-10-10T10:17:27;4.67;;;3.90;;
13311;SDS011;34033;48.672;9.376;2022-10-10T10:19:53;3.57;;;3.13;;
13311;SDS011;34033;48.672;9.376;2022-10-10T10:22:22;3.50;;;3.00;;
13311;SDS011;34033;48.672;9.376;2022-10-10T10:24:47;2.70;;;2.50;;
13311;SDS011;34033;48.672;9.376;2022-10-10T10:27:17;2.70;;;2.50;;
13311;SDS011;34033;48.672;9.376;2022-10-10T10:29:48;3.33;;;2.60;;
13311;SDS011;34033;48.672;9.376;2022-10-10T10:35:54;3.30;;;2.87;;
13311;SDS011;34033;48.672;9.376;2022-10-10T10:38:14;2.73;;;2.53;;
13311;SDS011;34033;48.672;9.376;2022-10-10T10:43:42;5.00;;;2.70;;
13311;SDS011;34033;48.672;9.376;2022-10-10T10:46:24;2.60;;;2.40;;
13311;SDS011;34033;48.672;9.376;2022-10-10T10:51:41;2.33;;;2.10;;
13311;SDS011;34033;48.672;9.376;2022-10-10T10:54:19;3.03;;;2.70;;
13311;SDS011;34033;48.672;9.376;2022-10-10T10:56:49;4.33;;;2.40;;
13311;SDS011;34033;48.672;9.376;2022-10-10T11:02:31;3.20;;;2.40;;
13311;SDS011;34033;48.672;9.376;2022-10-10T11:07:25;5.70;;;2.27;;
13311;SDS011;34033;48.672;9.376;2022-10-10T11:15:28;2.40;;;2.00;;
13311;SDS011;34033;48.672;9.376;2022-10-10T11:18:11;2.57;;;2.37;;
13311;SDS011;34033;48.672;9.376;2022-10-10T11:20:45;2.87;;;2.00;;
13311;SDS011;34033;48.672;9.376;2022-10-10T11:26:03;2.50;;;2.03;;
13311;SDS011;34033;48.672;9.376;2022-10-10T11:28:58;2.37;;;1.90;;
13311;SDS011;34033;48.672;9.376;2022-10-10T11:31:29;2.77;;;2.00;;
13311;SDS011;34033;48.672;9.376;2022-10-10T11:34:06;2.40;;;2.20;;
13311;SDS011;34033;48.672;9.376;2022-10-10T11:36:38;2.57;;;1.97;;
13311;SDS011;34033;48.672;9.376;2022-10-10T11:39:11;2.30;;;2.10;;
13311;SDS011;34033;48.672;9.376;2022-10-10T11:44:57;2.10;;;1.90;;
13311;SDS011;34033;48.672;9.376;2022-10-10T11:47:39;3.67;;;1.90;;
13311;SDS011;34033;48.672;9.376;2022-10-10T11:50:16;1.80;;;1.70;;
13311;SDS011;34033;48.672;9.376;2022-10-10T11:56:01;2.23;;;2.00;;
13311;SDS011;34033;48.672;9.376;2022-10-10T11:58:16;2.10;;;1.70;;
13311;SDS011;34033;48.672;9.376;2022-10-10T12:00:53;2.90;;;2.00;;
13311;SDS011;34033;48.672;9.376;2022-10-10T12:03:23;2.03;;;1.60;;
13311;SDS011;34033;48.672;9.376;2022-10-10T12:05:52;2.93;;;2.10;;
13311;SDS011;34033;48.672;9.376;2022-10-10T12:08:25;2.10;;;1.50;;
13311;SDS011;34033;48.672;9.376;2022-10-10T12:11:20;3.50;;;1.70;;
13311;SDS011;34033;48.672;9.376;2022-10-10T12:13:48;2.47;;;1.60;;
13311;SDS011;34033;48.672;9.376;2022-10-10T12:16:20;2.73;;;1.87;;
13311;SDS011;34033;48.672;9.376;2022-10-10T12:18:54;2.30;;;1.87;;
13311;SDS011;34033;48.672;9.376;2022-10-10T12:21:25;1.90;;;1.70;;
13311;SDS011;34033;48.672;9.376;2022-10-10T12:24:03;3.30;;;1.87;;
13311;SDS011;34033;48.672;9.376;2022-10-10T12:27:09;1.93;;;1.60;;
13311;SDS011;34033;48.672;9.376;2022-10-10T12:29:43;1.70;;;1.50;;
13311;SDS011;34033;48.672;9.376;2022-10-10T12:37:32;3.87;;;1.80;;
13311;SDS011;34033;48.672;9.376;2022-10-10T12:42:25;3.10;;;1.90;;
13311;SDS011;34033;48.672;9.376;2022-10-10T12:44:52;5.10;;;2.03;;
13311;SDS011;34033;48.672;9.376;2022-10-10T12:47:19;3.40;;;2.20;;
13311;SDS011;34033;48.672;9.376;2022-10-10T12:52:30;5.93;;;2.20;;
13311;SDS011;34033;48.672;9.376;2022-10-10T12:55:07;6.87;;;2.10;;
13311;SDS011;34033;48.672;9.376;2022-10-10T12:57:43;7.23;;;2.40;;
13311;SDS011;34033;48.672;9.376;2022-10-10T13:02:39;2.67;;;1.80;;
13311;SDS011;34033;48.672;9.376;2022-10-10T13:05:08;3.47;;;2.00;;
13311;SDS011;34033;48.672;9.376;2022-10-10T13:07:38;9.07;;;1.90;;
13311;SDS011;34033;48.672;9.376;2022-10-10T13:10:05;2.70;;;1.70;;
13311;SDS011;34033;48.672;9.376;2022-10-10T13:12:33;2.37;;;1.80;;
13311;SDS011;34033;48.672;9.376;2022-10-10T13:14:58;2.80;;;1.53;;
13311;SDS011;34033;48.672;9.376;2022-10-10T13:17:28;6.87;;;1.63;;
13311;SDS011;34033;48.672;9.376;2022-10-10T13:20:05;3.57;;;1.63;;
13311;SDS011;34033;48.672;9.376;2022-10-10T13:22:32;3.60;;;2.03;;
13311;SDS011;34033;48.672;9.376;2022-10-10T13:25:00;4.57;;;2.30;;
13311;SDS011;34033;48.672;9.376;2022-10-10T13:27:29;3.03;;;1.70;;
13311;SDS011;34033;48.672;9.376;2022-10-10T13:29:56;5.87;;;1.53;;
13311;SDS011;34033;48.672;9.376;2022-10-10T13:32:26;9.87;;;2.37;;
13311;SDS011;34033;48.672;9.376;2022-10-10T13:34:59;6.93;;;2.57;;
13311;SDS011;34033;48.672;9.376;2022-10-10T13:37:28;5.87;;;2.07;;
13311;SDS011;34033;48.672;9.376;2022-10-10T13:39:54;4.07;;;1.90;;
13311;SDS011;34033;48.672;9.376;2022-10-10T13:42:27;4.80;;;1.80;;
13311;SDS011;34033;48.672;9.376;2022-10-10T13:44:56;4.40;;;1.60;;
13311;SDS011;34033;48.672;9.376;2022-10-10T13:50:17;6.40;;;1.80;;
13311;SDS011;34033;48.672;9.376;2022-10-10T13:52:48;4.60;;;1.93;;
13311;SDS011;34033;48.672;9.376;2022-10-10T13:55:24;5.30;;;1.80;;
13311;SDS011;34033;48.672;9.376;2022-10-10T13:57:54;7.73;;;2.20;;
13311;SDS011;34033;48.672;9.376;2022-10-10T14:00:21;4.23;;;1.90;;
13311;SDS011;34033;48.672;9.376;2022-10-10T14:02:47;3.90;;;1.83;;
13311;SDS011;34033;48.672;9.376;2022-10-10T14:05:15;4.27;;;1.70;;
13311;SDS011;34033;48.672;9.376;2022-10-10T14:07:51;5.33;;;1.70;;
13311;SDS011;34033;48.672;9.376;2022-10-10T14:10:22;5.07;;;1.70;;
13311;SDS011;34033;48.672;9.376;2022-10-10T14:12:51;3.07;;;1.70;;
13311;SDS011;34033;48.672;9.376;2022-10-10T14:15:54;5.43;;;1.90;;
13311;SDS011;34033;48.672;9.376;2022-10-10T14:20:46;7.90;;;1.70;;
13311;SDS011;34033;48.672;9.376;2022-10-10T14:23:12;2.83;;;1.83;;
13311;SDS011;34033;48.672;9.376;2022-10-10T14:25:42;2.83;;;1.70;;
13311;SDS011;34033;48.672;9.376;2022-10-10T14:28:18;7.07;;;2.20;;
13311;SDS011;34033;48.672;9.376;2022-10-10T14:30:51;5.63;;;1.73;;
13311;SDS011;34033;48.672;9.376;2022-10-10T14:33:17;3.97;;;1.87;;
13311;SDS011;34033;48.672;9.376;2022-10-10T14:35:43;4.73;;;2.03;;
13311;SDS011;34033;48.672;9.376;2022-10-10T14:38:10;3.70;;;1.80;;
13311;SDS011;34033;48.672;9.376;2022-10-10T14:40:38;3.73;;;1.97;;
13311;SDS011;34033;48.672;9.376;2022-10-10T14:43:05;6.60;;;2.43;;
13311;SDS011;34033;48.672;9.376;2022-10-10T14:45:30;8.07;;;1.67;;
13311;SDS011;34033;48.672;9.376;2022-10-10T14:47:56;6.23;;;2.10;;
13311;SDS011;34033;48.672;9.376;2022-10-10T14:50:22;6.40;;;2.13;;
13311;SDS011;34033;48.672;9.376;2022-10-10T14:52:51;4.63;;;2.37;;
13311;SDS011;34033;48.672;9.376;2022-10-10T14:55:16;5.27;;;2.10;;
13311;SDS011;34033;48.672;9.376;2022-10-10T14:57:42;4.27;;;2.10;;
13311;SDS011;34033;48.672;9.376;2022-10-10T15:00:10;4.40;;;2.30;;
13311;SDS011;34033;48.672;9.376;2022-10-10T15:02:41;4.63;;;2.17;;
13311;SDS011;34033;48.672;9.376;2022-10-10T15:05:07;9.00;;;2.50;;
13311;SDS011;34033;48.672;9.376;2022-10-10T15:07:32;5.60;;;2.40;;
13311;SDS011;34033;48.672;9.376;2022-10-10T15:09:57;5.30;;;2.10;;
13311;SDS011;34033;48.672;9.376;2022-10-10T15:12:23;5.37;;;2.57;;
13311;SDS011;34033;48.672;9.376;2022-10-10T15:14:48;4.20;;;2.03;;
13311;SDS011;34033;48.672;9.376;2022-10-10T15:17:14;2.10;;;1.60;;
13311;SDS011;34033;48.672;9.376;2022-10-10T15:19:39;4.93;;;1.93;;
13311;SDS011;34033;48.672;9.376;2022-10-10T15:22:04;2.00;;;1.90;;
13311;SDS011;34033;48.672;9.376;2022-10-10T15:24:31;2.80;;;1.73;;
13311;SDS011;34033;48.672;9.376;2022-10-10T15:26:57;2.90;;;1.50;;
13311;SDS011;34033;48.672;9.376;2022-10-10T15:29:22;4.97;;;1.80;;
13311;SDS011;34033;48.672;9.376;2022-10-10T15:31:47;2.37;;;1.90;;
13311;SDS011;34033;48.672;9.376;2022-10-10T15:34:13;4.67;;;1.77;;
13311;SDS011;34033;48.672;9.376;2022-10-10T15:36:42;6.10;;;3.70;;
13311;SDS011;34033;48.672;9.376;2022-10-10T15:39:08;3.53;;;2.70;;
13311;SDS011;34033;48.672;9.376;2022-10-10T15:41:34;2.50;;;2.07;;
13311;SDS011;34033;48.672;9.376;2022-10-10T15:44:00;3.10;;;2.07;;
13311;SDS011;34033;48.672;9.376;2022-10-10T15:46:26;4.43;;;1.87;;
13311;SDS011;34033;48.672;9.376;2022-10-10T15:48:53;3.37;;;2.10;;
13311;SDS011;34033;48.672;9.376;2022-10-10T15:51:18;2.27;;;2.07;;
13311;SDS011;34033;48.672;9.376;2022-10-10T15:53:44;4.87;;;1.80;;
13311;SDS011;34033;48.672;9.376;2022-10-10T15:56:11;4.50;;;2.40;;
13311;SDS011;34033;48.672;9.376;2022-10-10T15:58:38;3.73;;;2.77;;
13311;SDS011;34033;48.672;9.376;2022-10-10T16:03:40;5.27;;;2.47;;
13311;SDS011;34033;48.672;9.376;2022-10-10T16:06:06;4.47;;;2.20;;
13311;SDS011;34033;48.672;9.376;2022-10-10T16:08:32;3.70;;;2.27;;
13311;SDS011;34033;48.672;9.376;2022-10-10T16:10:58;5.67;;;2.60;;
13311;SDS011;34033;48.672;9.376;2022-10-10T16:13:28;3.20;;;2.40;;
13311;SDS011;34033;48.672;9.376;2022-10-10T16:15:58;4.97;;;2.33;;
13311;SDS011;34033;48.672;9.376;2022-10-10T16:18:26;3.90;;;2.80;;
13311;SDS011;34033;48.672;9.376;2022-10-10T16:20:52;3.43;;;2.70;;
13311;SDS011;34033;48.672;9.376;2022-10-10T16:23:17;4.30;;;2.50;;
13311;SDS011;34033;48.672;9.376;2022-10-10T16:25:43;6.33;;;2.57;;
13311;SDS011;34033;48.672;9.376;2022-10-10T16:28:08;2.83;;;2.53;;
13311;SDS011;34033;48.672;9.376;2022-10-10T16:30:33;4.80;;;2.97;;
13311;SDS011;34033;48.672;9.376;2022-10-10T16:32:59;5.53;;;2.93;;
13311;SDS011;34033;48.672;9.376;2022-10-10T16:35:24;3.37;;;2.60;;